HECA/CAI METAR and TAF weather

Enter ICAO airport designator
Station Type Date Time Source
HECA METAR 2020/10/22 03:00 UTC NOAA

HECA 220300Z 04005KT CAVOK 20/18 Q1018 NOSIG


Station Type Date Time Source
HECA Decoded METAR 2020/10/22 03:00 UTC NOAA

Cairo Airport, Egypt (HECA) 30-08N 031-24E 74M
Oct 21, 2020 - 11:00 PM EDT / 2020.10.22 0300 UTC
Wind: from the NE (040 degrees) at 6 MPH (5 KT):0
Visibility: greater than 7 mile(s):0
Temperature: 68 F (20 C)
Dew Point: 64 F (18 C)
Relative Humidity: 88%
Pressure (altimeter): 30.06 in. Hg (1018 hPa)
ob: HECA 220300Z 04005KT CAVOK 20/18 Q1018 NOSIG
cycle: 3

Station Type Date Time Source
HECA TAF 2020/10/21 18:40 UTC NOAA

TAF HECA 211700Z 2118/2224 05012KT 9999 SCT025

Example: see airport list